Time;durP1;ratioP1;P1;durP2;ratioP2;P2;SDS_P1;SDS_P2;PMS_P1;PMS_P2;Temp;Humidity;BMP_temperature;BMP_pressure;BME280_temperature;BME280_humidity;BME280_pressure;Samples;Min_cycle;Max_cycle;Signal;HPM_P1;HPM_P2
2023/03/17 00:00:16;;;;;;;1.15;0.50;;;10.20;98.60;;;;;;5045801;28;20301;-78
2023/03/17 00:02:44;;;;;;;0.60;0.57;;;10.20;98.50;;;;;;5043749;28;20206;-77
2023/03/17 00:05:22;;;;;;;0.50;0.40;;;10.20;99.00;;;;;;5042410;28;20199;-77
2023/03/17 00:07:51;;;;;;;0.50;0.40;;;10.20;99.70;;;;;;5043631;28;20710;-77
2023/03/17 00:10:22;;;;;;;0.80;0.60;;;10.20;99.90;;;;;;5045480;28;20214;-78
2023/03/17 00:12:50;;;;;;;0.70;0.50;;;10.20;99.90;;;;;;5043606;28;20206;-77
2023/03/17 00:15:17;;;;;;;0.85;0.85;;;10.20;99.90;;;;;;5042096;28;20199;-76
2023/03/17 00:17:46;;;;;;;0.50;0.40;;;10.10;99.90;;;;;;5042280;28;20774;-77
2023/03/17 00:20:20;;;;;;;0.50;0.50;;;10.20;99.90;;;;;;5045161;28;20229;-77
2023/03/17 00:22:47;;;;;;;0.77;0.77;;;10.10;99.90;;;;;;5043826;28;20216;-77
2023/03/17 00:25:22;;;;;;;0.70;0.60;;;10.10;99.90;;;;;;5041967;28;20203;-78
2023/03/17 00:27:49;;;;;;;0.60;0.57;;;10.10;99.90;;;;;;5043295;28;20257;-75
2023/03/17 00:30:17;;;;;;;0.50;0.40;;;10.10;99.90;;;;;;5045223;28;20230;-78
2023/03/17 00:32:45;;;;;;;0.55;0.50;;;10.10;99.90;;;;;;5044174;28;20203;-76
2023/03/17 00:35:23;;;;;;;0.70;0.52;;;10.10;99.90;;;;;;5041914;28;20231;-77
2023/03/17 00:37:51;;;;;;;0.50;0.47;;;10.00;99.90;;;;;;5042905;28;20199;-76
2023/03/17 00:40:22;;;;;;;0.50;0.40;;;10.10;99.90;;;;;;5045045;28;20222;-77
2023/03/17 00:42:51;;;;;;;0.50;0.40;;;10.00;99.90;;;;;;5043476;28;20206;-77
2023/03/17 00:45:18;;;;;;;0.85;0.65;;;10.00;99.90;;;;;;5041674;28;20203;-77
2023/03/17 00:47:45;;;;;;;0.60;0.40;;;9.90;99.90;;;;;;5042218;28;20215;-77
2023/03/17 00:50:15;;;;;;;0.77;0.50;;;9.90;99.90;;;;;;5040221;28;20227;-76
2023/03/17 00:52:43;;;;;;;1.25;0.88;;;9.90;99.90;;;;;;5042088;28;20203;-77
2023/03/17 00:55:11;;;;;;;1.13;0.55;;;9.90;99.90;;;;;;5045663;28;20253;-79
2023/03/17 00:57:40;;;;;;;0.50;0.40;;;9.90;99.90;;;;;;5045124;28;20195;-79
2023/03/17 01:00:18;;;;;;;0.95;0.90;;;9.90;99.90;;;;;;5033628;28;20219;-79
2023/03/17 01:02:45;;;;;;;0.88;0.88;;;9.90;99.90;;;;;;5041884;28;20669;-76
2023/03/17 01:05:12;;;;;;;1.48;0.90;;;9.90;99.90;;;;;;5045441;28;20199;-79
2023/03/17 01:07:40;;;;;;;1.23;1.13;;;10.00;99.90;;;;;;5045024;28;20225;-79
2023/03/17 01:10:12;;;;;;;0.73;0.73;;;9.90;99.90;;;;;;5033529;28;20235;-78
2023/03/17 01:12:41;;;;;;;0.50;0.40;;;10.00;99.90;;;;;;5041107;28;20666;-78
2023/03/17 01:15:09;;;;;;;1.30;0.63;;;10.00;99.90;;;;;;5033493;28;20231;-78
2023/03/17 01:17:36;;;;;;;0.60;0.60;;;10.00;99.90;;;;;;5040919;28;20196;-78
2023/03/17 01:20:05;;;;;;;0.50;0.50;;;10.00;99.90;;;;;;5043644;28;20645;-79
2023/03/17 01:22:32;;;;;;;0.50;0.40;;;10.00;99.90;;;;;;5044336;28;20202;-78
2023/03/17 01:24:59;;;;;;;1.45;1.35;;;10.00;99.90;;;;;;5041714;28;20200;-78
2023/03/17 01:27:26;;;;;;;0.50;0.40;;;9.90;99.90;;;;;;5040715;28;20222;-79
2023/03/17 01:29:54;;;;;;;0.70;0.60;;;9.90;99.90;;;;;;5041076;28;20225;-78
2023/03/17 01:32:22;;;;;;;1.02;0.70;;;9.90;99.90;;;;;;5044302;28;20646;-78
2023/03/17 01:34:48;;;;;;;0.50;0.50;;;9.90;99.90;;;;;;5042859;28;20203;-78
2023/03/17 01:37:15;;;;;;;0.50;0.40;;;9.90;99.90;;;;;;5040411;28;20789;-78
2023/03/17 01:39:42;;;;;;;0.68;0.65;;;9.90;99.90;;;;;;5040312;28;20216;-78
2023/03/17 01:42:10;;;;;;;0.60;0.60;;;9.90;99.90;;;;;;5044143;28;20294;-78
2023/03/17 01:45:00;;;;;;;2.88;0.73;;;9.90;99.90;;;;;;5043949;28;20203;-79
2023/03/17 01:47:29;;;;;;;0.80;0.80;;;9.90;99.90;;;;;;5034990;28;20669;-79
2023/03/17 01:49:59;;;;;;;0.50;0.50;;;9.90;99.90;;;;;;5041580;28;20296;-78
2023/03/17 01:52:27;;;;;;;0.82;0.68;;;9.90;99.90;;;;;;5043932;28;20205;-78
2023/03/17 01:54:57;;;;;;;2.55;0.73;;;9.90;99.90;;;;;;5041948;28;20214;-78
2023/03/17 01:57:30;;;;;;;1.85;1.75;;;9.90;99.90;;;;;;5040296;28;20802;-78
2023/03/17 02:00:04;;;;;;;0.50;0.40;;;10.00;99.90;;;;;;5041686;28;20575;-78
2023/03/17 02:02:34;;;;;;;0.60;0.50;;;9.90;99.90;;;;;;5043273;28;20680;-78
2023/03/17 02:05:03;;;;;;;0.50;0.40;;;9.90;99.90;;;;;;5041047;28;20199;-78
2023/03/17 02:07:30;;;;;;;0.60;0.60;;;9.90;99.90;;;;;;5040088;28;20598;-78
2023/03/17 02:09:57;;;;;;;0.60;0.50;;;10.00;99.90;;;;;;5041425;28;20219;-79
2023/03/17 02:12:26;;;;;;;0.50;0.40;;;10.00;99.90;;;;;;5043290;28;20209;-78
2023/03/17 02:14:53;;;;;;;0.50;0.40;;;9.90;99.90;;;;;;5042061;28;20309;-78
2023/03/17 02:17:24;;;;;;;1.20;0.70;;;10.00;99.90;;;;;;5039743;28;20254;-78
2023/03/17 02:19:52;;;;;;;0.60;0.50;;;10.00;99.90;;;;;;5040516;28;20215;-78
2023/03/17 02:22:20;;;;;;;0.90;0.73;;;10.10;99.90;;;;;;5043402;28;20204;-78
2023/03/17 02:24:51;;;;;;;0.50;0.40;;;10.00;99.90;;;;;;5042400;28;20293;-77
2023/03/17 02:27:21;;;;;;;0.50;0.40;;;10.00;99.90;;;;;;5039936;28;20207;-78
2023/03/17 02:29:49;;;;;;;0.50;0.40;;;9.90;99.90;;;;;;5039665;28;20219;-78
2023/03/17 02:32:18;;;;;;;0.50;0.40;;;9.90;99.90;;;;;;5043112;28;20203;-78
2023/03/17 02:34:46;;;;;;;0.63;0.63;;;9.90;99.90;;;;;;5042756;28;20677;-77
2023/03/17 02:37:13;;;;;;;0.50;0.50;;;9.90;99.90;;;;;;5031640;28;20686;-79
2023/03/17 02:39:42;;;;;;;1.45;1.15;;;9.90;99.90;;;;;;5039465;28;20219;-78
2023/03/17 02:42:11;;;;;;;1.85;1.73;;;9.80;99.90;;;;;;5042475;28;20384;-79
2023/03/17 02:44:38;;;;;;;1.13;0.75;;;9.80;99.90;;;;;;5042951;28;20381;-78
2023/03/17 02:47:06;;;;;;;0.60;0.60;;;9.80;99.90;;;;;;5034307;28;20204;-78
2023/03/17 02:49:33;;;;;;;0.60;0.60;;;9.80;99.90;;;;;;5042387;28;20238;-78
2023/03/17 02:52:00;;;;;;;0.88;0.80;;;9.80;99.90;;;;;;5040574;28;20194;-78
2023/03/17 02:54:27;;;;;;;1.05;0.50;;;9.70;99.90;;;;;;5039501;28;20254;-78
2023/03/17 02:56:55;;;;;;;1.05;0.95;;;9.70;99.90;;;;;;5040036;28;20205;-79
2023/03/17 02:59:22;;;;;;;0.50;0.40;;;9.60;99.90;;;;;;5042723;28;20605;-79
2023/03/17 03:01:49;;;;;;;0.90;0.90;;;9.60;99.90;;;;;;5041683;28;20195;-78
2023/03/17 03:04:17;;;;;;;0.57;0.43;;;9.50;99.90;;;;;;5039449;28;20202;-78
2023/03/17 03:06:45;;;;;;;0.70;0.70;;;9.50;99.90;;;;;;5039272;28;20195;-78
2023/03/17 03:09:12;;;;;;;0.50;0.40;;;9.50;99.90;;;;;;5039385;28;20223;-76
2023/03/17 03:11:39;;;;;;;0.50;0.40;;;9.50;99.90;;;;;;5039206;28;20552;-78
2023/03/17 03:14:08;;;;;;;1.00;0.70;;;9.50;99.90;;;;;;5041508;28;20203;-78
2023/03/17 03:16:35;;;;;;;0.50;0.40;;;9.50;99.90;;;;;;5042276;28;20197;-77
2023/03/17 03:19:01;;;;;;;0.50;0.50;;;9.50;99.90;;;;;;5033556;28;20213;-78
2023/03/17 03:21:28;;;;;;;4.20;1.15;;;9.50;99.90;;;;;;5042391;28;20200;-76
2023/03/17 03:23:55;;;;;;;0.50;0.50;;;9.40;99.90;;;;;;5041401;28;20286;-78
2023/03/17 03:26:22;;;;;;;0.55;0.50;;;9.50;99.90;;;;;;5038877;28;20196;-78
2023/03/17 03:28:50;;;;;;;1.23;0.95;;;9.40;99.90;;;;;;5038710;28;20310;-78
2023/03/17 03:31:18;;;;;;;0.50;0.40;;;9.50;99.90;;;;;;5042233;28;20685;-78
2023/03/17 03:33:44;;;;;;;0.80;0.50;;;9.50;99.90;;;;;;5042197;28;20741;-75
2023/03/17 03:36:12;;;;;;;0.88;0.68;;;9.50;99.90;;;;;;5038988;28;20195;-78
2023/03/17 03:38:40;;;;;;;0.80;0.65;;;9.50;99.90;;;;;;5038850;28;20191;-77
2023/03/17 03:41:07;;;;;;;0.50;0.50;;;9.50;99.90;;;;;;5041062;28;20200;-78
2023/03/17 03:43:34;;;;;;;0.50;0.40;;;9.50;99.90;;;;;;5042085;28;20194;-77
2023/03/17 03:46:01;;;;;;;0.50;0.40;;;9.50;99.90;;;;;;5040407;28;20662;-78
2023/03/17 03:48:30;;;;;;;0.50;0.40;;;9.50;99.90;;;;;;5038919;28;20219;-78
2023/03/17 03:50:57;;;;;;;0.50;0.50;;;9.50;99.90;;;;;;5039146;28;20220;-78
2023/03/17 03:53:24;;;;;;;0.60;0.55;;;9.50;99.90;;;;;;5044600;28;20653;-78
2023/03/17 03:55:51;;;;;;;0.73;0.73;;;9.50;99.90;;;;;;5045301;28;20221;-78
2023/03/17 03:58:18;;;;;;;0.50;0.40;;;9.50;99.90;;;;;;5042508;28;20282;-78
2023/03/17 04:00:46;;;;;;;0.50;0.40;;;9.50;99.90;;;;;;5042410;28;20302;-78
2023/03/17 04:03:13;;;;;;;0.50;0.40;;;9.50;99.90;;;;;;5045101;28;20624;-77
2023/03/17 04:05:41;;;;;;;0.60;0.60;;;9.50;99.90;;;;;;5045772;28;20191;-78
2023/03/17 04:08:09;;;;;;;2.15;0.70;;;9.50;99.90;;;;;;5042698;28;20203;-78
2023/03/17 04:10:36;;;;;;;0.50;0.40;;;9.50;99.90;;;;;;5042287;28;20247;-78
2023/03/17 04:13:03;;;;;;;0.70;0.70;;;9.50;99.90;;;;;;5043699;28;20199;-78
2023/03/17 04:15:30;;;;;;;0.80;0.80;;;9.60;99.90;;;;;;5045655;28;20654;-77
2023/03/17 04:17:57;;;;;;;0.50;0.50;;;9.50;99.90;;;;;;5044380;28;20237;-77
2023/03/17 04:20:24;;;;;;;0.60;0.50;;;9.60;99.90;;;;;;5041721;28;20208;-77
2023/03/17 04:22:52;;;;;;;0.50;0.40;;;9.50;99.90;;;;;;5033507;28;20195;-77
2023/03/17 04:25:19;;;;;;;0.80;0.80;;;9.50;99.90;;;;;;5018935;28;20200;-77
2023/03/17 04:27:46;;;;;;;0.50;0.40;;;9.50;99.90;;;;;;5037559;28;20658;-77
2023/03/17 04:30:15;;;;;;;1.05;0.85;;;9.50;99.90;;;;;;5044288;28;20214;-77
2023/03/17 04:32:42;;;;;;;0.50;0.43;;;9.50;99.90;;;;;;5045201;28;20631;-77
2023/03/17 04:35:13;;;;;;;0.50;0.40;;;9.50;99.90;;;;;;5042411;28;20199;-77
2023/03/17 04:37:40;;;;;;;0.70;0.70;;;9.50;99.90;;;;;;5041788;28;20199;-77
2023/03/17 04:40:10;;;;;;;0.50;0.50;;;9.50;99.90;;;;;;5043312;28;20219;-78
2023/03/17 04:42:37;;;;;;;0.50;0.47;;;9.50;99.90;;;;;;5045071;28;20198;-77
2023/03/17 04:45:05;;;;;;;0.50;0.50;;;9.50;99.90;;;;;;5043158;28;20191;-77
2023/03/17 04:47:33;;;;;;;3.90;0.80;;;9.50;99.90;;;;;;5041462;28;20195;-77
2023/03/17 04:50:00;;;;;;;0.50;0.40;;;9.50;99.90;;;;;;5042367;28;20222;-78
2023/03/17 04:52:27;;;;;;;0.50;0.50;;;9.50;99.90;;;;;;5045471;28;20523;-77
2023/03/17 04:54:54;;;;;;;0.50;0.40;;;9.50;99.90;;;;;;5044863;28;20238;-77
2023/03/17 04:57:23;;;;;;;2.35;0.80;;;9.50;99.90;;;;;;5041945;28;20297;-78
2023/03/17 04:59:50;;;;;;;0.70;0.55;;;9.50;99.90;;;;;;5041290;28;20218;-78
2023/03/17 05:02:17;;;;;;;0.50;0.50;;;9.50;99.90;;;;;;5044543;28;20333;-76
2023/03/17 05:04:44;;;;;;;0.60;0.60;;;9.50;99.90;;;;;;5043311;28;20199;-78
2023/03/17 05:07:11;;;;;;;0.68;0.68;;;9.60;99.90;;;;;;5042015;28;20202;-77
2023/03/17 05:09:38;;;;;;;1.17;0.60;;;9.60;99.90;;;;;;5041202;28;20299;-77
2023/03/17 05:12:07;;;;;;;0.70;0.70;;;9.50;99.90;;;;;;5042439;28;20199;-78
2023/03/17 05:14:35;;;;;;;0.55;0.50;;;9.50;99.90;;;;;;5044856;28;20195;-77
2023/03/17 05:17:02;;;;;;;0.70;0.60;;;9.60;99.90;;;;;;5043270;28;20221;-77
2023/03/17 05:19:29;;;;;;;1.17;1.00;;;9.50;99.90;;;;;;5040667;28;20211;-78
2023/03/17 05:21:56;;;;;;;1.52;0.40;;;9.50;99.90;;;;;;5041189;28;20195;-78
2023/03/17 05:24:23;;;;;;;0.60;0.60;;;9.50;99.90;;;;;;5044650;28;20198;-78
2023/03/17 05:26:50;;;;;;;0.68;0.68;;;9.50;99.90;;;;;;5044386;28;20201;-76
2023/03/17 05:29:17;;;;;;;0.80;0.70;;;9.50;99.90;;;;;;5041057;28;20305;-78
2023/03/17 05:31:46;;;;;;;0.50;0.40;;;9.40;99.90;;;;;;5040900;28;20199;-78
2023/03/17 05:34:13;;;;;;;0.80;0.70;;;9.40;99.90;;;;;;5042851;28;20286;-78
2023/03/17 05:36:39;;;;;;;0.70;0.70;;;9.40;99.90;;;;;;5043958;28;20206;-77
2023/03/17 05:39:06;;;;;;;0.50;0.40;;;9.40;99.90;;;;;;5042145;28;20217;-78
2023/03/17 05:41:33;;;;;;;1.85;1.08;;;9.40;99.90;;;;;;5040465;28;20196;-78
2023/03/17 05:44:00;;;;;;;0.50;0.45;;;9.40;99.90;;;;;;5040952;28;20245;-78
2023/03/17 05:46:27;;;;;;;0.55;0.40;;;9.40;99.90;;;;;;5043987;28;20201;-78
2023/03/17 05:48:57;;;;;;;0.50;0.50;;;9.30;99.90;;;;;;5043713;28;20230;-77
2023/03/17 05:51:24;;;;;;;0.50;0.40;;;9.40;99.90;;;;;;5028373;28;20762;-77
2023/03/17 05:53:51;;;;;;;0.50;0.40;;;9.40;99.90;;;;;;5043529;28;20198;-78
2023/03/17 05:56:18;;;;;;;1.05;0.70;;;9.40;99.90;;;;;;5040693;28;20218;-78
2023/03/17 05:58:45;;;;;;;0.80;0.77;;;9.40;99.90;;;;;;5030985;28;20283;-77
2023/03/17 06:01:13;;;;;;;0.52;0.47;;;9.40;99.90;;;;;;5038875;28;20685;-76
2023/03/17 06:03:40;;;;;;;2.75;0.90;;;9.40;99.90;;;;;;5109127;22;20261;-81
2023/03/17 06:06:09;;;;;;;0.60;0.60;;;9.40;99.90;;;;;;5066407;28;20206;-79
2023/03/17 06:08:36;;;;;;;0.50;0.50;;;9.40;99.90;;;;;;5077746;28;20194;-82
2023/03/17 06:11:03;;;;;;;1.20;1.10;;;9.50;99.90;;;;;;5075641;28;20210;-79
2023/03/17 06:13:29;;;;;;;0.98;0.90;;;9.50;99.90;;;;;;5065739;28;20214;-82
2023/03/17 06:15:57;;;;;;;1.23;1.13;;;9.50;99.90;;;;;;5056983;28;20330;-80
2023/03/17 06:18:23;;;;;;;0.63;0.63;;;9.50;99.90;;;;;;5067444;28;20201;-81
2023/03/17 06:20:50;;;;;;;0.60;0.50;;;9.60;99.90;;;;;;5068247;28;20195;-80
2023/03/17 06:23:19;;;;;;;0.70;0.60;;;9.60;99.90;;;;;;5061005;28;20218;-80
2023/03/17 06:25:46;;;;;;;0.50;0.50;;;9.60;99.90;;;;;;5055107;28;20195;-80
2023/03/17 06:28:13;;;;;;;1.38;1.30;;;9.70;99.90;;;;;;5056744;28;20199;-81
2023/03/17 06:30:40;;;;;;;0.50;0.40;;;9.80;99.90;;;;;;5075162;28;20283;-80
2023/03/17 06:33:07;;;;;;;2.25;1.02;;;9.90;99.90;;;;;;5057858;28;20229;-80
2023/03/17 06:35:34;;;;;;;0.50;0.43;;;10.10;99.90;;;;;;5060805;28;20233;-80
2023/03/17 06:38:02;;;;;;;1.35;0.80;;;10.30;99.90;;;;;;5074559;28;20657;-81
2023/03/17 06:40:30;;;;;;;0.73;0.60;;;10.50;99.90;;;;;;5062778;28;20217;-81
2023/03/17 06:42:58;;;;;;;1.13;0.50;;;10.70;99.70;;;;;;5064345;28;20226;-78
2023/03/17 06:45:25;;;;;;;0.50;0.40;;;10.80;98.10;;;;;;5059231;28;20198;-81
2023/03/17 06:47:52;;;;;;;0.68;0.68;;;10.90;97.20;;;;;;5075504;28;20301;-81
2023/03/17 06:50:19;;;;;;;0.50;0.40;;;10.90;96.10;;;;;;5074668;28;20320;-82
2023/03/17 06:52:46;;;;;;;0.73;0.73;;;10.90;97.10;;;;;;5075940;28;20220;-81
2023/03/17 06:55:13;;;;;;;0.60;0.60;;;11.00;96.10;;;;;;5074947;28;20194;-79
2023/03/17 06:57:42;;;;;;;0.50;0.50;;;11.20;95.60;;;;;;5074974;28;20281;-81
2023/03/17 07:00:11;;;;;;;1.45;0.60;;;11.50;94.50;;;;;;5074784;28;20190;-78
2023/03/17 07:02:38;;;;;;;0.93;0.80;;;11.60;93.10;;;;;;5075515;28;20313;-82
2023/03/17 07:05:06;;;;;;;0.60;0.50;;;11.70;92.70;;;;;;5075318;28;20233;-80
2023/03/17 07:07:34;;;;;;;0.50;0.50;;;11.70;92.10;;;;;;5074890;28;20669;-81
2023/03/17 07:10:01;;;;;;;1.38;0.90;;;11.70;92.70;;;;;;5074403;28;20997;-81
2023/03/17 07:12:28;;;;;;;0.90;0.70;;;11.80;91.60;;;;;;5066952;28;20221;-81
2023/03/17 07:14:57;;;;;;;0.60;0.60;;;11.90;91.70;;;;;;5067839;28;20198;-83
2023/03/17 07:17:24;;;;;;;0.70;0.60;;;12.00;90.80;;;;;;5074731;28;20444;-82
2023/03/17 07:19:51;;;;;;;1.10;1.10;;;12.20;91.10;;;;;;5074876;28;20194;-80
2023/03/17 07:22:18;;;;;;;1.25;0.70;;;12.20;90.30;;;;;;5075042;28;20888;-82
2023/03/17 07:24:45;;;;;;;0.73;0.73;;;12.20;89.70;;;;;;5076539;28;20261;-81
2023/03/17 07:27:13;;;;;;;1.10;0.63;;;12.40;89.70;;;;;;5057134;28;20525;-81
2023/03/17 07:29:40;;;;;;;1.00;0.77;;;12.60;88.00;;;;;;5059805;28;20832;-81
2023/03/17 07:32:09;;;;;;;1.13;1.00;;;12.70;86.10;;;;;;5060357;28;20507;-82
2023/03/17 07:34:36;;;;;;;0.50;0.40;;;12.90;85.60;;;;;;5064693;28;20448;-82
2023/03/17 07:37:05;;;;;;;2.60;1.00;;;13.20;85.10;;;;;;5079019;28;20531;-79
2023/03/17 07:39:32;;;;;;;0.50;0.40;;;13.50;83.50;;;;;;5078706;28;20436;-80
2023/03/17 07:41:59;;;;;;;6.53;1.00;;;13.90;82.00;;;;;;5079127;28;20519;-80
2023/03/17 07:44:26;;;;;;;0.80;0.80;;;13.90;80.90;;;;;;5079808;28;20436;-80
2023/03/17 07:46:53;;;;;;;0.50;0.40;;;14.10;79.50;;;;;;5080022;28;20439;-82
2023/03/17 07:49:21;;;;;;;0.50;0.40;;;14.00;79.50;;;;;;5059790;28;20441;-79
2023/03/17 07:51:48;;;;;;;0.77;0.60;;;14.20;77.70;;;;;;5061577;28;20888;-81
2023/03/17 07:54:15;;;;;;;1.73;0.60;;;14.20;78.20;;;;;;5058718;28;20540;-82
2023/03/17 07:56:43;;;;;;;1.00;0.93;;;14.50;77.60;;;;;;5059523;28;20449;-80
2023/03/17 07:59:10;;;;;;;0.63;0.63;;;14.60;75.70;;;;;;5067567;28;20478;-79
2023/03/17 08:01:37;;;;;;;0.60;0.53;;;14.30;75.20;;;;;;5078773;28;20506;-78
2023/03/17 08:04:04;;;;;;;1.13;0.67;;;14.20;76.10;;;;;;5079473;28;20464;-81
2023/03/17 08:06:33;;;;;;;0.80;0.80;;;14.30;76.00;;;;;;5068077;28;20475;-82
2023/03/17 08:08:59;;;;;;;1.10;1.00;;;14.40;76.90;;;;;;5059769;28;20468;-81
2023/03/17 08:11:26;;;;;;;0.77;0.77;;;14.60;76.00;;;;;;5079930;28;20567;-81
2023/03/17 08:13:53;;;;;;;0.50;0.50;;;14.90;76.40;;;;;;5079695;28;20470;-80
2023/03/17 08:16:20;;;;;;;0.50;0.40;;;15.50;74.30;;;;;;5076262;28;20497;-80
2023/03/17 08:18:47;;;;;;;1.07;0.90;;;15.70;72.40;;;;;;5073219;28;20448;-78
2023/03/17 08:21:15;;;;;;;0.50;0.40;;;15.80;71.30;;;;;;5079519;28;20467;-81
2023/03/17 08:23:43;;;;;;;0.50;0.40;;;15.90;71.00;;;;;;5079027;28;20472;-80
2023/03/17 08:26:10;;;;;;;0.50;0.40;;;15.70;71.20;;;;;;5070223;28;20538;-80
2023/03/17 08:28:37;;;;;;;2.13;1.03;;;15.50;72.20;;;;;;5074813;28;20464;-80
2023/03/17 08:31:12;;;;;;;0.50;0.50;;;15.40;72.00;;;;;;5057984;28;20538;-81
2023/03/17 08:33:39;;;;;;;0.97;0.90;;;15.80;71.90;;;;;;5058713;28;20463;-81
2023/03/17 08:36:09;;;;;;;2.83;2.17;;;16.30;69.50;;;;;;5058510;28;20441;-80
2023/03/17 08:38:36;;;;;;;1.10;1.00;;;16.70;69.00;;;;;;5058488;28;20434;-81
2023/03/17 08:41:07;;;;;;;0.80;0.40;;;16.90;69.00;;;;;;5058824;28;20448;-82
2023/03/17 08:43:34;;;;;;;0.60;0.40;;;16.80;68.80;;;;;;5070124;28;20468;-82
2023/03/17 08:46:05;;;;;;;1.27;0.97;;;17.10;67.70;;;;;;5078447;28;20436;-82
2023/03/17 08:48:32;;;;;;;0.60;0.40;;;16.70;67.30;;;;;;5062414;28;20475;-82
2023/03/17 08:50:59;;;;;;;0.60;0.43;;;16.10;67.50;;;;;;5073526;28;20460;-81
2023/03/17 08:53:26;;;;;;;0.50;0.30;;;15.80;68.60;;;;;;5091879;28;20503;-84
2023/03/17 08:55:55;;;;;;;0.50;0.33;;;15.90;69.70;;;;;;5082027;28;20480;-81
2023/03/17 08:58:24;;;;;;;0.60;0.57;;;16.30;69.50;;;;;;5080058;28;20439;-82
2023/03/17 09:00:51;;;;;;;3.47;1.13;;;17.10;68.50;;;;;;5067210;28;20539;-81
2023/03/17 09:03:19;;;;;;;0.50;0.50;;;17.60;67.10;;;;;;5057946;28;20483;-80
2023/03/17 09:05:46;;;;;;;1.13;0.70;;;18.10;64.70;;;;;;5057173;28;20433;-80
2023/03/17 09:08:13;;;;;;;0.50;0.40;;;18.10;64.10;;;;;;5061225;28;20469;-82
2023/03/17 09:10:40;;;;;;;0.83;0.50;;;18.10;63.00;;;;;;5062027;28;20572;-83
2023/03/17 09:13:07;;;;;;;0.70;0.70;;;18.50;64.20;;;;;;5065738;28;20535;-83
2023/03/17 09:15:37;;;;;;;1.00;1.00;;;18.80;63.00;;;;;;5064825;28;20441;-82
2023/03/17 09:18:05;;;;;;;3.40;1.13;;;19.10;61.90;;;;;;5060674;28;20433;-80
2023/03/17 09:20:31;;;;;;;1.20;0.90;;;18.90;60.90;;;;;;5056178;28;20434;-82
2023/03/17 09:22:59;;;;;;;0.60;0.53;;;18.70;61.10;;;;;;5056527;28;20471;-82
2023/03/17 09:25:26;;;;;;;0.60;0.40;;;18.70;62.30;;;;;;5075689;28;20454;-81
2023/03/17 09:27:53;;;;;;;0.50;0.30;;;18.70;61.70;;;;;;5077358;28;20523;-80
2023/03/17 09:30:20;;;;;;;0.60;0.40;;;18.70;62.40;;;;;;5075345;28;20484;-80
2023/03/17 09:32:48;;;;;;;0.60;0.57;;;18.60;60.90;;;;;;5070990;28;20460;-80
2023/03/17 09:35:15;;;;;;;0.50;0.40;;;18.60;61.50;;;;;;5076821;28;20981;-81
2023/03/17 09:37:42;;;;;;;0.50;0.40;;;19.40;61.00;;;;;;5077326;28;20500;-81
2023/03/17 09:40:15;;;;;;;0.50;0.37;;;20.00;59.90;;;;;;5077442;28;20436;-80
2023/03/17 09:42:49;;;;;;;1.23;1.17;;;19.70;59.90;;;;;;5062898;28;20452;-81
2023/03/17 09:45:27;;;;;;;0.50;0.40;;;18.70;60.80;;;;;;5076320;28;20487;-81
2023/03/17 09:48:18;;;;;;;0.50;0.40;;;18.70;61.80;;;;;;5071618;28;20428;-80
2023/03/17 09:50:48;;;;;;;1.50;1.40;;;18.80;61.60;;;;;;5062038;28;20558;-79
2023/03/17 09:53:19;;;;;;;1.57;1.47;;;18.90;60.60;;;;;;5067550;28;21071;-78
2023/03/17 09:55:51;;;;;;;0.50;0.40;;;19.10;60.60;;;;;;5055936;28;20804;-77
2023/03/17 09:58:24;;;;;;;0.50;0.30;;;19.20;60.30;;;;;;5073070;28;20466;-80
2023/03/17 10:00:52;;;;;;;0.50;0.40;;;19.30;61.30;;;;;;5076928;28;20436;-80
2023/03/17 10:03:20;;;;;;;0.60;0.40;;;19.60;60.30;;;;;;5077516;28;20464;-78
2023/03/17 10:05:47;;;;;;;0.60;0.53;;;20.10;59.00;;;;;;5076497;28;20472;-79
2023/03/17 10:08:19;;;;;;;0.50;0.30;;;20.50;59.00;;;;;;5066655;28;20516;-77
2023/03/17 10:10:49;;;;;;;0.50;0.40;;;21.00;58.50;;;;;;5070190;28;20899;-79
2023/03/17 10:13:26;;;;;;;0.50;0.40;;;20.80;58.40;;;;;;5068827;28;21246;-78
2023/03/17 10:15:58;;;;;;;0.60;0.40;;;20.50;58.00;;;;;;5076050;28;20458;-81
2023/03/17 10:18:30;;;;;;;0.70;0.40;;;20.10;58.60;;;;;;5058159;28;20513;-81
2023/03/17 10:21:01;;;;;;;0.60;0.47;;;20.20;58.60;;;;;;5071277;28;20444;-83
2023/03/17 10:23:31;;;;;;;0.60;0.50;;;19.90;59.00;;;;;;5076936;28;20562;-82
2023/03/17 10:26:05;;;;;;;0.50;0.30;;;20.20;58.90;;;;;;5067952;28;20551;-81
2023/03/17 10:28:37;;;;;;;0.60;0.40;;;21.00;59.40;;;;;;5064860;28;20447;-80
2023/03/17 10:31:15;;;;;;;3.17;0.97;;;21.50;58.10;;;;;;5056121;28;20847;-80
2023/03/17 10:33:44;;;;;;;0.87;0.87;;;21.40;56.70;;;;;;5067916;28;20487;-82
2023/03/17 10:36:14;;;;;;;0.60;0.40;;;20.80;57.60;;;;;;5077019;28;20435;-78
2023/03/17 10:38:42;;;;;;;0.50;0.30;;;20.80;58.80;;;;;;5072416;28;20433;-81
2023/03/17 10:41:14;;;;;;;0.50;0.40;;;20.60;57.90;;;;;;5063988;28;20475;-80
2023/03/17 10:43:45;;;;;;;0.50;0.50;;;20.70;58.30;;;;;;5068295;28;20464;-79
2023/03/17 10:46:20;;;;;;;1.80;1.20;;;21.50;57.80;;;;;;5075915;28;20446;-81
2023/03/17 10:48:53;;;;;;;0.70;0.70;;;21.20;56.90;;;;;;5074342;28;20964;-82
2023/03/17 10:51:29;;;;;;;0.60;0.40;;;21.20;57.60;;;;;;5067266;28;20479;-81
2023/03/17 10:54:00;;;;;;;0.50;0.40;;;20.60;57.30;;;;;;5055099;28;20464;-80
2023/03/17 10:56:33;;;;;;;0.80;0.40;;;20.30;57.70;;;;;;5055264;28;20449;-81
2023/03/17 10:59:06;;;;;;;0.50;0.33;;;20.10;58.00;;;;;;5069712;28;20436;-80
2023/03/17 11:01:38;;;;;;;0.50;0.40;;;20.10;58.50;;;;;;5064297;28;20553;-82
2023/03/17 11:04:27;;;;;;;0.97;0.87;;;20.30;58.60;;;;;;5056305;28;20547;-82
2023/03/17 11:06:57;;;;;;;2.00;1.37;;;20.00;58.60;;;;;;5061682;28;20502;-80
2023/03/17 11:09:25;;;;;;;0.60;0.60;;;20.20;59.00;;;;;;5058250;28;20472;-81
2023/03/17 11:12:02;;;;;;;0.50;0.40;;;20.10;59.20;;;;;;5061378;28;20476;-80
2023/03/17 11:14:29;;;;;;;0.80;0.80;;;20.00;58.40;;;;;;5059914;28;20455;-82
2023/03/17 11:16:58;;;;;;;0.50;0.40;;;20.00;58.90;;;;;;5075884;28;20519;-81
2023/03/17 11:19:37;;;;;;;0.50;0.40;;;20.20;58.90;;;;;;5075302;28;20478;-81
2023/03/17 11:22:10;;;;;;;0.50;0.40;;;19.60;60.20;;;;;;5067730;28;20436;-82
2023/03/17 11:24:44;;;;;;;0.50;0.40;;;20.10;59.70;;;;;;5075278;28;20441;-81
2023/03/17 11:27:20;;;;;;;0.70;0.67;;;20.40;59.90;;;;;;5075168;28;20861;-82
2023/03/17 11:30:03;;;;;;;0.60;0.50;;;20.20;59.40;;;;;;5063620;28;20449;-82
2023/03/17 11:32:36;;;;;;;0.50;0.30;;;20.30;59.30;;;;;;5054711;28;20568;-82
2023/03/17 11:35:28;;;;;;;1.20;1.10;;;20.60;61.00;;;;;;5055050;28;20445;-79
2023/03/17 11:38:09;;;;;;;0.63;0.47;;;21.20;58.70;;;;;;5055199;28;20932;-81
2023/03/17 11:40:46;;;;;;;1.33;0.90;;;21.40;58.10;;;;;;5054765;28;20555;-82
2023/03/17 11:43:28;;;;;;;0.60;0.43;;;20.80;58.00;;;;;;5062582;28;20460;-81
2023/03/17 11:46:01;;;;;;;0.60;0.53;;;20.70;58.00;;;;;;5060482;28;20440;-81
2023/03/17 11:48:40;;;;;;;2.10;0.97;;;20.10;58.80;;;;;;5057091;28;20469;-81
2023/03/17 11:51:15;;;;;;;1.23;0.80;;;20.20;59.50;;;;;;5054993;28;20487;-81
2023/03/17 11:53:56;;;;;;;0.50;0.30;;;20.20;58.70;;;;;;5055085;28;20456;-81
2023/03/17 11:56:31;;;;;;;1.00;0.90;;;19.70;59.20;;;;;;5055940;28;20851;-83
2023/03/17 11:59:01;;;;;;;0.87;0.50;;;19.80;59.80;;;;;;5069578;28;20432;-79
2023/03/17 12:01:33;;;;;;;0.50;0.50;;;19.40;59.90;;;;;;5055228;28;20433;-81
2023/03/17 12:04:10;;;;;;;0.60;0.53;;;19.70;60.30;;;;;;5069629;28;20542;-81
2023/03/17 12:06:45;;;;;;;5.23;0.80;;;19.90;60.60;;;;;;5075229;28;20503;-81
2023/03/17 12:09:21;;;;;;;0.83;0.83;;;20.10;60.40;;;;;;5067987;28;20436;-80
2023/03/17 12:11:49;;;;;;;0.70;0.70;;;20.10;60.30;;;;;;5054961;28;20480;-82
2023/03/17 12:14:26;;;;;;;0.50;0.30;;;20.10;59.70;;;;;;5065054;28;20560;-81
2023/03/17 12:17:00;;;;;;;0.50;0.40;;;20.30;60.40;;;;;;5063876;28;20470;-81
2023/03/17 12:19:32;;;;;;;0.50;0.30;;;20.80;60.00;;;;;;5078590;28;20438;-81
2023/03/17 12:22:06;;;;;;;0.60;0.40;;;21.30;58.90;;;;;;5079189;28;20447;-82
2023/03/17 12:24:38;;;;;;;0.50;0.33;;;21.20;58.70;;;;;;5076454;28;20432;-82
2023/03/17 12:27:13;;;;;;;1.33;1.23;;;21.00;59.00;;;;;;5064803;28;20444;-82
2023/03/17 12:29:46;;;;;;;0.50;0.40;;;21.10;58.90;;;;;;5061740;28;20966;-82
2023/03/17 12:32:19;;;;;;;0.50;0.40;;;21.00;59.30;;;;;;5069634;28;20847;-82
2023/03/17 12:34:51;;;;;;;0.60;0.53;;;20.80;59.50;;;;;;5058321;28;20437;-81
2023/03/17 12:37:21;;;;;;;0.50;0.40;;;20.50;59.90;;;;;;5058833;28;20532;-79
2023/03/17 12:39:57;;;;;;;0.80;0.60;;;20.50;59.90;;;;;;5058641;28;20865;-82
2023/03/17 12:42:38;;;;;;;0.50;0.40;;;20.30;59.60;;;;;;5057905;28;20456;-80
2023/03/17 12:45:29;;;;;;;0.50;0.40;;;20.30;60.00;;;;;;5072939;28;20747;-78
2023/03/17 12:48:14;;;;;;;0.60;0.50;;;20.30;61.00;;;;;;5071550;28;20483;-81
2023/03/17 12:51:04;;;;;;;0.60;0.50;;;20.30;59.90;;;;;;5074602;28;20980;-80
2023/03/17 12:53:34;;;;;;;0.60;0.40;;;20.40;60.90;;;;;;5067432;28;20547;-79
2023/03/17 12:56:09;;;;;;;0.50;0.47;;;20.10;59.80;;;;;;5077506;28;20947;-81
2023/03/17 12:58:38;;;;;;;1.13;1.03;;;20.00;60.80;;;;;;5059612;28;20440;-81
2023/03/17 13:01:14;;;;;;;0.50;0.40;;;20.10;61.90;;;;;;5063852;28;20970;-81